createdAt,value
2019-02-21T00:00:24.398Z,82.05
2019-02-21T00:01:17.975Z,81.49
2019-02-21T00:02:16.959Z,81.39
2019-02-21T00:03:16.948Z,81.39
2019-02-21T00:04:16.937Z,81.84
2019-02-21T00:05:16.927Z,81.49
2019-02-21T00:06:16.916Z,81.35
2019-02-21T00:07:16.907Z,80.94
2019-02-21T00:08:16.900Z,80.94
2019-02-21T00:09:16.884Z,80.32
2019-02-21T00:10:16.878Z,80.32
2019-02-21T00:11:16.939Z,80.43
2019-02-21T00:12:16.856Z,80.22
2019-02-21T00:13:16.841Z,80.43
2019-02-21T00:14:16.831Z,79.49
2019-02-21T00:15:16.820Z,79.80
2019-02-21T00:16:16.808Z,79.70
2019-02-21T00:17:16.800Z,79.60
2019-02-21T00:18:16.788Z,79.70
2019-02-21T00:19:16.786Z,79.60
2019-02-21T00:20:16.767Z,79.91
2019-02-21T00:21:16.756Z,79.84
2019-02-21T00:22:16.746Z,79.80
2019-02-21T00:23:16.734Z,80.22
2019-02-21T00:24:16.724Z,80.46
2019-02-21T00:25:16.715Z,80.36
2019-02-21T00:26:16.709Z,80.67
2019-02-21T00:27:16.691Z,79.94
2019-02-21T00:28:16.682Z,80.88
2019-02-21T00:29:16.670Z,80.77
2019-02-21T00:30:16.664Z,80.88
2019-02-21T00:31:16.650Z,80.36
2019-02-21T00:32:16.639Z,80.36
2019-02-21T00:33:16.628Z,80.77
2019-02-21T00:34:16.619Z,81.02
2019-02-21T00:35:16.607Z,81.02
2019-02-21T00:36:16.598Z,81.43
2019-02-21T00:37:16.585Z,80.91
2019-02-21T00:38:16.575Z,81.54
2019-02-21T00:39:16.565Z,82.19
2019-02-21T00:40:16.553Z,81.57
2019-02-21T00:41:16.543Z,82.40
2019-02-21T00:42:16.533Z,82.40
2019-02-21T00:43:16.524Z,82.29
2019-02-21T00:44:16.510Z,82.29
2019-02-21T00:45:16.505Z,82.09
2019-02-21T00:46:16.488Z,81.88
2019-02-21T00:47:16.479Z,81.95
2019-02-21T00:48:16.467Z,81.47
2019-02-21T00:49:16.458Z,81.78
2019-02-21T00:50:16.446Z,82.40
2019-02-21T00:51:16.436Z,82.29
2019-02-21T00:52:16.426Z,82.29
2019-02-21T00:53:16.414Z,82.36
2019-02-21T00:54:16.405Z,82.09
2019-02-21T00:55:16.393Z,81.95
2019-02-21T00:56:16.382Z,81.95
2019-02-21T00:57:16.372Z,81.64
2019-02-21T00:58:16.360Z,81.33
2019-02-21T00:59:16.350Z,81.64
2019-02-21T01:00:16.340Z,81.64
2019-02-21T01:01:16.330Z,81.43
2019-02-21T01:02:16.317Z,81.54
2019-02-21T01:03:16.306Z,81.49
2019-02-21T01:04:16.297Z,80.88
2019-02-21T01:05:16.286Z,80.81
2019-02-21T01:06:16.275Z,80.91
2019-02-21T01:07:16.268Z,81.02
2019-02-21T01:08:16.255Z,81.43
2019-02-21T01:09:16.244Z,81.54
2019-02-21T01:10:16.234Z,81.64
2019-02-21T01:11:16.226Z,81.12
2019-02-21T01:12:16.215Z,81.09
2019-02-21T01:13:16.202Z,80.77
2019-02-21T01:14:16.189Z,80.26
2019-02-21T01:15:16.178Z,80.46
2019-02-21T01:16:16.170Z,80.01
2019-02-21T01:17:16.163Z,79.29
2019-02-21T01:18:16.146Z,79.29
2019-02-21T01:19:16.140Z,79.29
2019-02-21T01:20:16.126Z,78.77
2019-02-21T01:21:16.115Z,78.67
2019-02-21T01:22:16.105Z,78.32
2019-02-21T01:23:16.094Z,78.22
2019-02-21T01:24:16.087Z,78.11
2019-02-21T01:25:16.072Z,78.11
2019-02-21T01:26:16.062Z,77.77
2019-02-21T01:27:16.052Z,77.67
2019-02-21T01:28:16.040Z,77.87
2019-02-21T01:29:16.031Z,78.08
2019-02-21T01:30:16.019Z,77.56
2019-02-21T01:31:16.009Z,77.67
2019-02-21T01:32:15.999Z,77.67
2019-02-21T01:33:15.987Z,77.87
2019-02-21T01:34:15.975Z,77.25
2019-02-21T01:35:15.964Z,77.77
2019-02-21T01:36:15.971Z,77.04
2019-02-21T01:37:15.944Z,77.04
2019-02-21T01:38:15.932Z,76.84
2019-02-21T01:39:15.922Z,76.94
2019-02-21T01:40:15.919Z,77.04
2019-02-21T01:41:15.901Z,77.36
2019-02-21T01:42:15.890Z,77.36
2019-02-21T01:43:15.881Z,76.84
2019-02-21T01:44:15.875Z,76.94
2019-02-21T01:45:15.861Z,76.94
2019-02-21T01:46:15.849Z,77.04
2019-02-21T01:47:15.837Z,76.94
2019-02-21T01:48:15.826Z,77.04
2019-02-21T01:49:15.818Z,76.84
2019-02-21T01:50:15.806Z,77.04
2019-02-21T01:51:15.798Z,76.84
2019-02-21T01:52:15.783Z,76.84
2019-02-21T01:53:15.774Z,76.77
2019-02-21T01:54:15.761Z,77.15
2019-02-21T01:55:15.772Z,77.19
2019-02-21T01:56:15.743Z,77.15
2019-02-21T01:57:15.731Z,76.94
2019-02-21T01:58:15.720Z,77.36
2019-02-21T01:59:15.708Z,77.15
2019-02-21T02:00:15.700Z,77.04
2019-02-21T02:01:15.688Z,76.84
2019-02-21T02:02:15.678Z,76.94
2019-02-21T02:03:15.666Z,76.94
2019-02-21T02:04:15.659Z,76.94
2019-02-21T02:05:15.646Z,76.94
2019-02-21T02:06:15.635Z,77.04
2019-02-21T02:07:15.623Z,77.25
2019-02-21T02:08:15.612Z,77.46
2019-02-21T02:09:15.640Z,77.15
2019-02-21T02:10:15.593Z,77.46
2019-02-21T02:11:15.583Z,77.25
2019-02-21T02:12:15.569Z,77.15
2019-02-21T02:13:24.211Z,77.36
2019-02-21T02:14:16.551Z,77.56
2019-02-21T02:15:15.542Z,77.46
2019-02-21T02:16:15.529Z,77.46
2019-02-21T02:17:15.519Z,77.36
2019-02-21T02:18:15.505Z,77.56
2019-02-21T02:19:15.497Z,77.67
2019-02-21T02:20:15.487Z,77.36
2019-02-21T02:21:15.477Z,77.04
2019-02-21T02:22:15.463Z,77.67
2019-02-21T02:23:15.456Z,77.67
2019-02-21T02:24:15.443Z,77.46
2019-02-21T02:25:15.431Z,77.56
2019-02-21T02:26:15.421Z,77.25
2019-02-21T02:27:15.412Z,77.67
2019-02-21T02:28:15.401Z,77.36
2019-02-21T02:29:15.390Z,77.15
2019-02-21T02:30:15.384Z,77.25
2019-02-21T02:31:22.757Z,77.36
2019-02-21T02:32:16.357Z,77.25
2019-02-21T02:33:15.347Z,77.36
2019-02-21T02:34:15.334Z,77.25
2019-02-21T02:35:15.326Z,77.01
2019-02-21T02:36:15.313Z,77.36
2019-02-21T02:37:15.304Z,76.94
2019-02-21T02:38:15.294Z,77.22
2019-02-21T02:39:15.285Z,77.22
2019-02-21T02:40:15.279Z,77.25
2019-02-21T02:41:15.267Z,77.46
2019-02-21T02:42:15.251Z,77.15
2019-02-21T02:43:15.263Z,77.53
2019-02-21T02:44:15.231Z,77.46
2019-02-21T02:45:15.219Z,77.22
2019-02-21T02:46:15.208Z,77.15
2019-02-21T02:47:15.203Z,77.25
2019-02-21T02:48:15.194Z,77.04
2019-02-21T02:49:15.177Z,77.63
2019-02-21T02:50:15.188Z,77.22
2019-02-21T02:51:15.156Z,77.67
2019-02-21T02:52:15.142Z,77.84
2019-02-21T02:53:15.140Z,77.22
2019-02-21T02:54:15.125Z,77.56
2019-02-21T02:55:15.111Z,77.77
2019-02-21T02:56:15.103Z,77.36
2019-02-21T02:57:15.093Z,77.36
2019-02-21T02:58:15.146Z,77.84
2019-02-21T02:59:15.069Z,76.84
2019-02-21T03:00:15.063Z,77.42
2019-02-21T03:01:15.051Z,77.22
2019-02-21T03:02:15.037Z,77.22
2019-02-21T03:03:15.027Z,77.15
2019-02-21T03:04:15.038Z,77.01
2019-02-21T03:05:15.005Z,77.01
2019-02-21T03:06:14.993Z,77.11
2019-02-21T03:07:14.984Z,76.90
2019-02-21T03:08:14.972Z,77.11
2019-02-21T03:09:14.961Z,77.11
2019-02-21T03:10:14.951Z,76.90
2019-02-21T03:11:14.944Z,76.70
2019-02-21T03:12:14.932Z,77.22
2019-02-21T03:13:14.919Z,77.42
2019-02-21T03:14:14.909Z,77.32
2019-02-21T03:15:14.896Z,77.22
2019-02-21T03:16:14.894Z,77.42
2019-02-21T03:17:14.875Z,77.56
2019-02-21T03:18:14.868Z,77.63
2019-02-21T03:19:14.857Z,77.32
2019-02-21T03:20:14.853Z,77.32
2019-02-21T03:21:14.837Z,77.63
2019-02-21T03:22:14.826Z,77.42
2019-02-21T03:23:14.811Z,77.42
2019-02-21T03:24:14.808Z,77.53
2019-02-21T03:25:14.796Z,77.11
2019-02-21T03:26:14.781Z,77.53
2019-02-21T03:27:14.773Z,77.32
2019-02-21T03:28:14.761Z,77.63
2019-02-21T03:29:14.753Z,77.42
2019-02-21T03:30:14.740Z,77.63
2019-02-21T03:31:14.732Z,77.53
2019-02-21T03:32:14.716Z,77.84
2019-02-21T03:33:14.707Z,77.63
2019-02-21T03:34:14.836Z,78.14
2019-02-21T03:35:14.686Z,77.73
2019-02-21T03:36:14.684Z,77.63
2019-02-21T03:37:14.678Z,77.94
2019-02-21T03:38:14.662Z,78.08
2019-02-21T03:39:14.647Z,77.63
2019-02-21T03:40:14.629Z,78.05
2019-02-21T03:41:14.619Z,77.63
2019-02-21T03:42:14.608Z,77.63
2019-02-21T03:43:14.598Z,77.67
2019-02-21T03:44:14.587Z,78.05
2019-02-21T03:45:14.581Z,77.63
2019-02-21T03:46:14.574Z,78.25
2019-02-21T03:47:14.553Z,77.84
2019-02-21T03:48:14.545Z,78.05
2019-02-21T03:49:14.537Z,77.98
2019-02-21T03:50:14.522Z,78.87
2019-02-21T03:51:14.517Z,78.25
2019-02-21T03:52:14.545Z,78.45
2019-02-21T03:53:14.495Z,78.49
2019-02-21T03:54:14.481Z,78.56
2019-02-21T03:55:14.471Z,79.01
2019-02-21T03:56:14.459Z,78.45
2019-02-21T03:57:14.455Z,78.45
2019-02-21T03:58:14.439Z,78.97
2019-02-21T03:59:14.430Z,78.87
2019-02-21T04:00:14.417Z,78.45
2019-02-21T04:01:14.410Z,78.56
2019-02-21T04:02:14.395Z,78.77
2019-02-21T04:03:14.383Z,78.87
2019-02-21T04:04:14.373Z,78.35
2019-02-21T04:05:14.364Z,79.18
2019-02-21T04:06:14.351Z,79.18
2019-02-21T04:07:14.356Z,79.38
2019-02-21T04:08:14.335Z,79.49
2019-02-21T04:09:14.321Z,79.28
2019-02-21T04:10:14.312Z,79.59
2019-02-21T04:11:14.302Z,80.04
2019-02-21T04:12:14.293Z,80.25
2019-02-21T04:13:15.297Z,80.25
2019-02-21T04:14:14.266Z,80.04
2019-02-21T04:15:14.271Z,80.52
2019-02-21T04:16:14.245Z,80.97
2019-02-21T04:17:14.234Z,80.66
2019-02-21T04:18:14.224Z,80.93
2019-02-21T04:19:14.218Z,81.14
2019-02-21T04:20:14.203Z,81.07
2019-02-21T04:21:14.197Z,80.62
2019-02-21T04:22:14.182Z,81.04
2019-02-21T04:23:14.176Z,80.76
2019-02-21T04:24:14.159Z,81.28
2019-02-21T04:25:14.149Z,80.93
2019-02-21T04:26:14.140Z,80.66
2019-02-21T04:27:14.125Z,79.94
2019-02-21T04:28:14.118Z,80.52
2019-02-21T04:29:14.104Z,80.76
2019-02-21T04:30:14.097Z,81.07
2019-02-21T04:31:14.086Z,80.73
2019-02-21T04:32:16.884Z,81.49
2019-02-21T04:33:14.064Z,81.49
2019-02-21T04:34:14.054Z,81.90
2019-02-21T04:35:14.044Z,82.89
2019-02-21T04:36:14.030Z,82.73
2019-02-21T04:37:14.022Z,83.14
2019-02-21T04:38:14.016Z,83.97
2019-02-21T04:39:14.002Z,83.65
2019-02-21T04:40:13.990Z,83.65
2019-02-21T04:41:13.979Z,83.55
2019-02-21T04:42:13.969Z,84.38
2019-02-21T04:43:13.958Z,84.48
2019-02-21T04:44:13.946Z,84.52
2019-02-21T04:45:13.937Z,84.69
2019-02-21T04:46:13.927Z,85.21
2019-02-21T04:47:13.916Z,84.52
2019-02-21T04:48:13.907Z,85.86
2019-02-21T04:49:13.896Z,85.97
2019-02-21T04:50:13.885Z,85.86
2019-02-21T04:51:13.873Z,85.35
2019-02-21T04:52:13.860Z,84.69
2019-02-21T04:53:13.860Z,85.86
2019-02-21T04:54:13.844Z,84.83
2019-02-21T04:55:13.834Z,84.52
2019-02-21T04:56:13.819Z,84.38
2019-02-21T04:57:13.806Z,84.79
2019-02-21T04:58:13.795Z,85.04
2019-02-21T04:59:13.788Z,85.72
2019-02-21T05:00:13.778Z,85.86
2019-02-21T05:01:13.765Z,84.63
2019-02-21T05:02:13.754Z,85.55
2019-02-21T05:03:13.746Z,84.83
2019-02-21T05:04:13.734Z,85.10
2019-02-21T05:05:13.722Z,85.76
2019-02-21T05:06:13.724Z,85.55
2019-02-21T05:07:13.754Z,86.07
2019-02-21T05:08:13.690Z,85.62
2019-02-21T05:09:13.680Z,85.86
2019-02-21T05:10:13.670Z,85.66
2019-02-21T05:11:13.656Z,85.66
2019-02-21T05:12:13.651Z,85.97
2019-02-21T05:13:13.636Z,85.55
2019-02-21T05:14:13.633Z,85.55
2019-02-21T05:15:14.193Z,85.97
2019-02-21T05:16:13.604Z,86.38
2019-02-21T05:17:13.593Z,85.86
2019-02-21T05:18:13.585Z,85.97
2019-02-21T05:19:13.573Z,86.07
2019-02-21T05:20:13.564Z,85.66
2019-02-21T05:21:13.550Z,85.97
2019-02-21T05:22:13.545Z,85.97
2019-02-21T05:23:13.532Z,86.07
2019-02-21T05:24:13.519Z,86.28
2019-02-21T05:25:13.509Z,86.38
2019-02-21T05:26:13.497Z,87.41
2019-02-21T05:27:13.486Z,87.62
2019-02-21T05:28:13.476Z,87.62
2019-02-21T05:29:13.465Z,87.52
2019-02-21T05:30:13.485Z,87.62
2019-02-21T05:31:13.444Z,87.10
2019-02-21T05:32:13.435Z,87.93
2019-02-21T05:33:13.421Z,87.62
2019-02-21T05:34:13.410Z,88.14
2019-02-21T05:35:13.401Z,88.55
2019-02-21T05:36:13.390Z,88.86
2019-02-21T05:37:13.380Z,89.59
2019-02-21T05:38:13.390Z,90.10
2019-02-21T05:39:13.373Z,89.59
2019-02-21T05:40:13.345Z,89.69
2019-02-21T05:41:13.339Z,90.83
2019-02-21T05:42:13.326Z,91.28
2019-02-21T05:43:13.322Z,91.28
2019-02-21T05:44:13.305Z,92.00
2019-02-21T05:45:13.297Z,91.80
2019-02-21T05:46:13.283Z,92.00
2019-02-21T05:47:13.273Z,92.00
2019-02-21T05:48:13.262Z,93.18
2019-02-21T05:49:13.250Z,93.24
2019-02-21T05:50:13.242Z,93.66
2019-02-21T05:51:13.233Z,93.97
2019-02-21T05:52:13.224Z,94.01
2019-02-21T05:53:13.213Z,94.12
2019-02-21T05:54:13.199Z,94.12
2019-02-21T05:55:13.188Z,94.12
2019-02-21T05:56:13.179Z,94.12
2019-02-21T05:57:13.167Z,94.63
2019-02-21T05:58:13.157Z,95.04
2019-02-21T05:59:13.147Z,95.15
2019-02-21T06:00:13.139Z,95.46
2019-02-21T06:01:13.122Z,95.36
2019-02-21T06:02:13.112Z,95.87
2019-02-21T06:03:13.101Z,96.39
2019-02-21T06:04:13.094Z,96.59
2019-02-21T06:05:13.084Z,96.54
2019-02-21T06:06:13.126Z,96.64
2019-02-21T06:07:13.064Z,96.54
2019-02-21T06:08:13.047Z,96.91
2019-02-21T06:09:13.050Z,96.70
2019-02-21T06:10:13.029Z,96.85
2019-02-21T06:11:13.015Z,96.80
2019-02-21T06:12:13.005Z,96.75
2019-02-21T06:13:12.996Z,96.29
2019-02-21T06:14:13.080Z,96.59
2019-02-21T06:15:12.975Z,96.64
2019-02-21T06:16:12.999Z,96.39
2019-02-21T06:17:12.952Z,96.59
2019-02-21T06:18:12.941Z,96.49
2019-02-21T06:19:12.931Z,96.33
2019-02-21T06:20:12.922Z,96.39
2019-02-21T06:21:12.912Z,96.70
2019-02-21T06:22:12.899Z,96.59
2019-02-21T06:23:12.889Z,96.80
2019-02-21T06:24:12.880Z,96.70
2019-02-21T06:25:12.866Z,96.80
2019-02-21T06:26:12.945Z,96.59
2019-02-21T06:27:12.844Z,96.49
2019-02-21T06:28:12.835Z,96.39
2019-02-21T06:29:12.825Z,96.19
2019-02-21T06:30:12.814Z,95.36
2019-02-21T06:31:12.804Z,95.46
2019-02-21T06:32:14.529Z,95.15
2019-02-21T06:33:12.783Z,95.04
2019-02-21T06:34:12.771Z,94.94
2019-02-21T06:35:12.764Z,95.46
2019-02-21T06:36:12.754Z,95.46
2019-02-21T06:37:12.933Z,95.25
2019-02-21T06:38:12.734Z,95.56
2019-02-21T06:39:12.718Z,95.52
2019-02-21T06:40:12.705Z,95.10
2019-02-21T06:41:12.696Z,95.42
2019-02-21T06:42:12.684Z,95.10
2019-02-21T06:43:12.675Z,95.21
2019-02-21T06:44:12.667Z,95.56
2019-02-21T06:45:12.654Z,95.42
2019-02-21T06:46:13.695Z,95.21
2019-02-21T06:47:12.677Z,95.31
2019-02-21T06:48:12.708Z,95.52
2019-02-21T06:49:12.612Z,95.73
2019-02-21T06:50:14.428Z,95.83
2019-02-21T06:51:12.589Z,95.73
2019-02-21T06:52:12.580Z,95.52
2019-02-21T06:53:12.570Z,95.10
2019-02-21T06:54:12.557Z,95.10
2019-02-21T06:55:12.545Z,95.42
2019-02-21T06:56:12.536Z,95.31
2019-02-21T06:57:12.525Z,95.00
2019-02-21T06:58:12.515Z,94.07
2019-02-21T06:59:12.505Z,93.82
2019-02-21T07:00:12.496Z,93.93
2019-02-21T07:01:12.483Z,93.93
2019-02-21T07:02:13.635Z,94.13
2019-02-21T07:03:15.850Z,93.82
2019-02-21T07:04:12.450Z,94.03
2019-02-21T07:05:12.438Z,94.23
2019-02-21T07:06:12.462Z,93.57
2019-02-21T07:07:12.418Z,93.05
2019-02-21T07:08:12.410Z,93.05
2019-02-21T07:09:12.398Z,92.95
2019-02-21T07:10:12.386Z,93.01
2019-02-21T07:11:12.377Z,92.74
2019-02-21T07:12:12.394Z,92.13
2019-02-21T07:13:12.355Z,92.02
2019-02-21T07:14:12.344Z,91.88
2019-02-21T07:15:14.929Z,92.08
2019-02-21T07:16:13.245Z,91.88
2019-02-21T07:17:12.317Z,91.88
2019-02-21T07:18:12.302Z,91.11
2019-02-21T07:19:12.291Z,91.36
2019-02-21T07:20:12.986Z,90.64
2019-02-21T07:21:13.327Z,90.53
2019-02-21T07:22:17.854Z,90.28
2019-02-21T07:23:13.247Z,89.46
2019-02-21T07:24:12.238Z,90.39
2019-02-21T07:25:12.226Z,89.11
2019-02-21T07:26:12.218Z,88.59
2019-02-21T07:27:12.204Z,89.22
2019-02-21T07:28:15.591Z,89.94
2019-02-21T07:29:12.183Z,88.39
2019-02-21T07:30:19.593Z,87.56
2019-02-21T07:31:13.166Z,88.49
2019-02-21T07:32:12.151Z,87.56
2019-02-21T07:33:12.140Z,87.63
2019-02-21T07:34:12.130Z,87.66
2019-02-21T07:35:12.126Z,88.35
2019-02-21T07:36:12.109Z,88.24
2019-02-21T07:37:18.744Z,87.73
2019-02-21T07:38:13.087Z,88.39
2019-02-21T07:39:17.453Z,88.39
2019-02-21T07:40:19.790Z,88.08
2019-02-21T07:41:13.223Z,88.70
2019-02-21T07:42:12.044Z,87.56
2019-02-21T07:43:12.892Z,87.46
2019-02-21T07:44:12.637Z,87.26
2019-02-21T07:45:12.143Z,87.26
2019-02-21T07:46:12.000Z,87.35
2019-02-21T07:47:11.989Z,86.84
2019-02-21T07:48:12.059Z,86.22
2019-02-21T07:49:11.969Z,87.42
2019-02-21T07:50:11.959Z,87.11
2019-02-21T07:51:13.477Z,87.42
2019-02-21T07:52:11.935Z,85.97
2019-02-21T07:53:12.435Z,85.87
2019-02-21T07:54:11.918Z,85.57
2019-02-21T07:55:11.908Z,85.36
2019-02-21T07:56:11.895Z,85.36
2019-02-21T07:57:11.884Z,85.57
2019-02-21T07:58:11.876Z,85.57
2019-02-21T07:59:12.251Z,85.57
2019-02-21T08:00:11.862Z,85.97
2019-02-21T08:01:11.842Z,85.67
2019-02-21T08:02:11.831Z,84.49
2019-02-21T08:03:11.821Z,84.19
2019-02-21T08:04:11.809Z,83.87
2019-02-21T08:05:11.800Z,83.87
2019-02-21T08:06:11.788Z,84.08
2019-02-21T08:07:11.783Z,83.87
2019-02-21T08:08:11.764Z,83.98
2019-02-21T08:09:11.759Z,84.29
2019-02-21T08:10:11.747Z,83.56
2019-02-21T08:11:11.733Z,83.77
2019-02-21T08:12:11.726Z,84.19
2019-02-21T08:13:11.712Z,83.77
2019-02-21T08:14:11.701Z,83.98
2019-02-21T08:15:11.953Z,84.49
2019-02-21T08:16:12.505Z,84.29
2019-02-21T08:17:11.688Z,83.98
2019-02-21T08:18:11.657Z,84.80
2019-02-21T08:19:11.648Z,85.63
2019-02-21T08:20:11.637Z,85.52
2019-02-21T08:21:11.626Z,85.94
2019-02-21T08:22:11.615Z,86.35
2019-02-21T08:23:11.603Z,86.76
2019-02-21T08:24:11.593Z,87.42
2019-02-21T08:25:11.583Z,87.07
2019-02-21T08:26:11.576Z,86.18
2019-02-21T08:27:11.567Z,87.27
2019-02-21T08:28:11.554Z,87.63
2019-02-21T08:29:11.539Z,88.14
2019-02-21T08:30:11.528Z,88.10
2019-02-21T08:31:11.520Z,87.11
2019-02-21T08:32:11.507Z,87.01
2019-02-21T08:33:11.500Z,87.93
2019-02-21T08:34:11.485Z,88.56
2019-02-21T08:35:11.479Z,88.76
2019-02-21T08:36:11.469Z,88.24
2019-02-21T08:37:11.455Z,89.17
2019-02-21T08:38:12.218Z,90.10
2019-02-21T08:39:11.432Z,88.04
2019-02-21T08:40:11.421Z,88.96
2019-02-21T08:41:11.411Z,89.69
2019-02-21T08:42:11.399Z,89.48
2019-02-21T08:43:11.392Z,90.51
2019-02-21T08:44:11.383Z,90.35
2019-02-21T08:45:11.369Z,91.13
2019-02-21T08:46:11.360Z,91.24
2019-02-21T08:47:11.348Z,90.76
2019-02-21T08:48:13.403Z,91.48
2019-02-21T08:49:11.326Z,91.69
2019-02-21T08:50:11.316Z,91.89
2019-02-21T08:51:11.304Z,91.24
2019-02-21T08:52:11.294Z,91.58
2019-02-21T08:53:13.035Z,91.85
2019-02-21T08:54:11.551Z,91.64
2019-02-21T08:55:11.266Z,91.75
2019-02-21T08:56:11.251Z,91.28
2019-02-21T08:57:11.242Z,91.79
2019-02-21T08:58:11.234Z,92.06
2019-02-21T08:59:11.218Z,92.57
2019-02-21T09:00:11.214Z,91.96
2019-02-21T09:01:11.200Z,91.03
2019-02-21T09:02:11.189Z,91.85
2019-02-21T09:03:11.180Z,90.41
2019-02-21T09:04:26.388Z,90.37
2019-02-21T09:05:12.158Z,91.09
2019-02-21T09:06:11.146Z,91.71
2019-02-21T09:07:11.134Z,91.09
2019-02-21T09:08:11.124Z,90.78
2019-02-21T09:09:11.114Z,90.47
2019-02-21T09:10:11.104Z,90.22
2019-02-21T09:11:11.091Z,90.12
2019-02-21T09:12:11.086Z,91.87
2019-02-21T09:13:11.069Z,91.05
2019-02-21T09:14:11.061Z,91.05
2019-02-21T09:15:11.048Z,91.00
2019-02-21T09:16:11.040Z,90.18
2019-02-21T09:17:11.027Z,90.28
2019-02-21T09:18:11.023Z,90.28
2019-02-21T09:19:11.007Z,90.28
2019-02-21T09:20:10.996Z,90.18
2019-02-21T09:21:10.988Z,90.80
2019-02-21T09:22:10.974Z,90.39
2019-02-21T09:23:10.964Z,90.39
2019-02-21T09:24:13.639Z,91.00
2019-02-21T09:25:10.943Z,90.64
2019-02-21T09:26:10.934Z,90.33
2019-02-21T09:27:10.920Z,90.39
2019-02-21T09:28:10.912Z,90.53
2019-02-21T09:29:10.901Z,90.18
2019-02-21T09:30:10.892Z,90.12
2019-02-21T09:31:10.880Z,90.43
2019-02-21T09:32:10.868Z,90.49
2019-02-21T09:33:17.445Z,90.22
2019-02-21T09:34:20.801Z,90.39
2019-02-21T09:35:11.838Z,90.28
2019-02-21T09:36:10.826Z,90.49
2019-02-21T09:37:10.814Z,90.28
2019-02-21T09:38:10.804Z,90.90
2019-02-21T09:39:10.794Z,91.62
2019-02-21T09:40:10.974Z,90.49
2019-02-21T09:41:10.773Z,90.49
2019-02-21T09:42:10.761Z,90.64
2019-02-21T09:43:10.751Z,90.39
2019-02-21T09:44:10.739Z,90.59
2019-02-21T09:45:10.732Z,90.59
2019-02-21T09:46:10.717Z,90.69
2019-02-21T09:47:10.708Z,90.22
2019-02-21T09:48:12.071Z,89.77
2019-02-21T09:49:10.687Z,90.18
2019-02-21T09:50:10.675Z,89.67
2019-02-21T09:51:10.665Z,89.36
2019-02-21T09:52:10.654Z,89.67
2019-02-21T09:53:10.646Z,89.83
2019-02-21T09:54:10.637Z,89.42
2019-02-21T09:55:10.625Z,89.94
2019-02-21T09:56:10.614Z,88.14
2019-02-21T09:57:13.529Z,88.04
2019-02-21T09:58:10.592Z,87.63
2019-02-21T09:59:10.579Z,87.32
2019-02-21T10:00:10.574Z,87.18
2019-02-21T10:01:10.560Z,87.12
2019-02-21T10:02:10.549Z,87.01
2019-02-21T10:03:10.537Z,86.29
2019-02-21T10:04:10.525Z,87.28
2019-02-21T10:05:10.517Z,85.74
2019-02-21T10:06:10.504Z,85.84
2019-02-21T10:07:10.492Z,85.94
2019-02-21T10:08:10.481Z,85.53
2019-02-21T10:09:10.474Z,85.22
2019-02-21T10:10:10.462Z,85.12
2019-02-21T10:11:11.470Z,85.33
2019-02-21T10:12:10.440Z,85.63
2019-02-21T10:13:13.156Z,84.40
2019-02-21T10:14:10.422Z,84.20
2019-02-21T10:15:10.405Z,84.91
2019-02-21T10:16:10.394Z,85.22
2019-02-21T10:17:10.385Z,85.70
2019-02-21T10:18:10.373Z,85.08
2019-02-21T10:19:10.364Z,83.81
2019-02-21T10:20:10.356Z,82.64
2019-02-21T10:21:10.339Z,80.03
2019-02-21T10:22:10.329Z,77.73
2019-02-21T10:23:10.319Z,77.43
2019-02-21T10:24:10.308Z,79.11
2019-02-21T10:25:10.298Z,78.80
2019-02-21T10:26:10.287Z,79.04
2019-02-21T10:27:10.276Z,79.49
2019-02-21T10:28:10.266Z,79.11
2019-02-21T10:29:10.255Z,77.77
2019-02-21T10:30:10.245Z,77.29
2019-02-21T10:31:10.234Z,76.27
2019-02-21T10:32:10.225Z,76.47
2019-02-21T10:33:10.213Z,77.02
2019-02-21T10:34:10.200Z,76.95
2019-02-21T10:35:10.192Z,77.02
2019-02-21T10:36:10.182Z,76.31
2019-02-21T10:37:10.170Z,76.17
2019-02-21T10:38:10.157Z,75.27
2019-02-21T10:39:10.214Z,74.63
2019-02-21T10:40:10.137Z,72.14
2019-02-21T10:41:10.126Z,72.52
2019-02-21T10:42:10.116Z,72.31
2019-02-21T10:43:10.109Z,72.45
2019-02-21T10:44:10.094Z,73.47
2019-02-21T10:45:10.083Z,71.25
2019-02-21T10:46:10.072Z,72.41
2019-02-21T10:47:10.062Z,74.39
2019-02-21T10:48:10.051Z,74.97
2019-02-21T10:49:10.040Z,76.03
2019-02-21T10:50:10.030Z,76.54
2019-02-21T10:51:10.021Z,76.24
2019-02-21T10:52:10.004Z,76.27
2019-02-21T10:53:09.995Z,74.49
2019-02-21T10:54:09.984Z,73.68
2019-02-21T10:55:09.974Z,73.91
2019-02-21T10:56:09.966Z,74.26
2019-02-21T10:57:09.952Z,72.69
2019-02-21T10:58:09.941Z,70.92
2019-02-21T10:59:09.933Z,69.25
2019-02-21T11:00:10.013Z,66.30
2019-02-21T11:01:09.907Z,64.23
2019-02-21T11:02:09.898Z,62.93
2019-02-21T11:03:09.888Z,62.55
2019-02-21T11:04:09.879Z,63.93
2019-02-21T11:05:09.868Z,64.18
2019-02-21T11:06:09.852Z,61.98
2019-02-21T11:07:09.842Z,61.07
2019-02-21T11:08:09.835Z,60.76
2019-02-21T11:09:09.824Z,62.62
2019-02-21T11:10:09.810Z,60.30
2019-02-21T11:11:09.803Z,59.97
2019-02-21T11:12:09.790Z,57.03
2019-02-21T11:13:09.779Z,60.72
2019-02-21T11:14:09.766Z,63.24
2019-02-21T11:15:09.756Z,64.81
2019-02-21T11:16:09.748Z,64.29
2019-02-21T11:17:09.733Z,64.81
2019-02-21T11:18:09.724Z,64.29
2019-02-21T11:19:09.712Z,65.78
2019-02-21T11:20:09.705Z,67.04
2019-02-21T11:21:09.694Z,65.14
2019-02-21T11:22:09.682Z,64.57
2019-02-21T11:23:09.670Z,64.17
2019-02-21T11:24:09.661Z,65.45
2019-02-21T11:25:09.648Z,65.68
2019-02-21T11:26:09.642Z,66.83
2019-02-21T11:27:09.629Z,67.38
2019-02-21T11:28:09.618Z,68.43
2019-02-21T11:29:09.607Z,68.53
2019-02-21T11:30:09.597Z,68.84
2019-02-21T11:31:09.587Z,68.50
2019-02-21T11:32:09.575Z,65.37
2019-02-21T11:33:09.565Z,64.87
2019-02-21T11:34:09.553Z,62.11
2019-02-21T11:35:09.543Z,60.92
2019-02-21T11:36:09.530Z,61.56
2019-02-21T11:37:09.523Z,62.68
2019-02-21T11:38:09.512Z,61.13
2019-02-21T11:39:09.497Z,59.82
2019-02-21T11:40:09.494Z,59.08
2019-02-21T11:41:09.480Z,58.73
2019-02-21T11:42:09.473Z,61.46
2019-02-21T11:43:09.458Z,64.03
2019-02-21T11:44:09.445Z,63.09
2019-02-21T11:45:09.440Z,63.15
2019-02-21T11:46:09.548Z,63.04
2019-02-21T11:47:09.414Z,63.10
2019-02-21T11:48:09.465Z,65.65
2019-02-21T11:49:09.395Z,65.45
2019-02-21T11:50:09.380Z,67.11
2019-02-21T11:51:09.372Z,66.30
2019-02-21T11:52:10.338Z,66.30
2019-02-21T11:53:09.350Z,66.53
2019-02-21T11:54:09.338Z,66.77
2019-02-21T11:55:09.326Z,68.33
2019-02-21T11:56:09.317Z,68.02
2019-02-21T11:57:09.309Z,67.92
2019-02-21T11:58:09.295Z,68.66
2019-02-21T11:59:09.287Z,68.43
2019-02-21T12:00:09.274Z,69.15
2019-02-21T12:01:09.261Z,66.86
2019-02-21T12:02:09.251Z,66.22
2019-02-21T12:03:09.238Z,65.37
2019-02-21T12:04:09.234Z,64.87
2019-02-21T12:05:17.142Z,65.04
2019-02-21T12:06:10.205Z,63.18
2019-02-21T12:07:09.195Z,62.61
2019-02-21T12:08:09.186Z,61.41
2019-02-21T12:09:09.175Z,63.07
2019-02-21T12:10:09.164Z,64.36
2019-02-21T12:11:09.153Z,65.44
2019-02-21T12:12:10.440Z,66.28
2019-02-21T12:13:09.131Z,68.05
2019-02-21T12:14:09.120Z,68.46
2019-02-21T12:15:09.124Z,68.57
2019-02-21T12:16:09.100Z,69.21
2019-02-21T12:17:09.087Z,69.42
2019-02-21T12:18:09.077Z,69.52
2019-02-21T12:19:09.065Z,69.11
2019-02-21T12:20:09.054Z,69.18
2019-02-21T12:21:09.045Z,69.89
2019-02-21T12:22:09.036Z,68.46
2019-02-21T12:23:09.024Z,69.07
2019-02-21T12:24:09.014Z,69.07
2019-02-21T12:25:09.002Z,68.57
2019-02-21T12:26:08.990Z,68.87
2019-02-21T12:27:08.979Z,68.63
2019-02-21T12:28:08.969Z,68.05
2019-02-21T12:29:08.961Z,66.90
2019-02-21T12:30:08.950Z,67.30
2019-02-21T12:31:08.949Z,67.65
2019-02-21T12:32:08.928Z,67.61
2019-02-21T12:33:08.918Z,68.02
2019-02-21T12:34:08.905Z,67.21
2019-02-21T12:35:08.896Z,67.65
2019-02-21T12:36:08.883Z,67.95
2019-02-21T12:37:08.873Z,68.84
2019-02-21T12:38:08.861Z,68.77
2019-02-21T12:39:08.853Z,68.66
2019-02-21T12:40:08.841Z,68.87
2019-02-21T12:41:08.846Z,69.89
2019-02-21T12:42:08.821Z,69.48
2019-02-21T12:43:08.808Z,69.38
2019-02-21T12:44:08.800Z,69.07
2019-02-21T12:45:08.788Z,68.97
2019-02-21T12:46:08.777Z,68.46
2019-02-21T12:47:08.766Z,69.11
2019-02-21T12:48:08.756Z,71.25
2019-02-21T12:49:10.701Z,68.70
2019-02-21T12:50:08.734Z,69.42
2019-02-21T12:51:08.724Z,70.75
2019-02-21T12:52:08.754Z,69.82